Time;durP1;ratioP1;P1;durP2;ratioP2;P2;SDS_P1;SDS_P2;PMS_P1;PMS_P2;Temp;Humidity;BMP_temperature;BMP_pressure;BME280_temperature;BME280_humidity;BME280_pressure;Samples;Min_cycle;Max_cycle;Signal;HPM_P1;HPM_P2
2021/11/16 00:00:42;;;;;;;4.85;4.55;;;8.50;99.90;;;;;;5015770;28;20246;-92
2021/11/16 00:03:10;;;;;;;4.90;4.50;;;8.50;99.90;;;;;;5013046;28;20224;-90
2021/11/16 00:05:38;;;;;;;4.65;4.30;;;8.50;99.90;;;;;;5015870;28;20236;-90
2021/11/16 00:08:06;;;;;;;4.50;4.18;;;8.50;99.90;;;;;;5015329;28;20232;-92
2021/11/16 00:10:33;;;;;;;4.55;4.25;;;8.50;99.90;;;;;;5011095;28;20231;-92
2021/11/16 00:13:01;;;;;;;4.65;4.35;;;8.50;99.90;;;;;;5010631;28;20231;-92
2021/11/16 00:15:28;;;;;;;4.45;4.15;;;8.40;99.90;;;;;;5016922;28;20232;-92
2021/11/16 00:17:57;;;;;;;4.70;4.40;;;8.40;99.90;;;;;;5012798;28;20323;-92
2021/11/16 00:20:24;;;;;;;5.00;4.60;;;8.40;99.90;;;;;;5009158;28;20232;-92
2021/11/16 00:22:52;;;;;;;4.18;3.88;;;8.40;99.90;;;;;;5015200;28;20266;-92
2021/11/16 00:25:23;;;;;;;4.85;4.55;;;8.40;99.90;;;;;;5012076;28;20251;-92
2021/11/16 00:27:51;;;;;;;4.97;4.57;;;8.40;99.90;;;;;;5009156;28;20228;-92
2021/11/16 00:30:19;;;;;;;5.57;5.07;;;8.30;99.90;;;;;;5014427;28;20232;-91
2021/11/16 00:32:47;;;;;;;5.07;4.68;;;8.20;99.90;;;;;;5012276;28;20224;-91
2021/11/16 00:35:16;;;;;;;5.03;4.53;;;8.20;99.90;;;;;;5017661;28;20220;-92
2021/11/16 00:37:43;;;;;;;5.15;4.75;;;8.20;99.90;;;;;;5016967;28;20591;-92
2021/11/16 00:40:16;;;;;;;4.70;4.32;;;8.20;99.90;;;;;;5012760;28;20302;-90
2021/11/16 00:42:43;;;;;;;4.60;4.30;;;8.30;99.90;;;;;;5014722;28;20355;-92
2021/11/16 00:45:13;;;;;;;4.82;4.43;;;8.20;99.90;;;;;;5012202;28;20579;-91
2021/11/16 00:47:40;;;;;;;5.32;4.85;;;8.20;99.90;;;;;;5013543;28;20243;-92
2021/11/16 00:50:09;;;;;;;4.28;3.90;;;8.30;99.90;;;;;;5010935;28;20223;-92
2021/11/16 00:52:38;;;;;;;5.00;4.60;;;8.30;99.90;;;;;;5028084;28;20301;-92
2021/11/16 00:55:06;;;;;;;5.10;4.70;;;8.20;99.90;;;;;;5032231;28;20219;-92
2021/11/16 00:57:33;;;;;;;5.03;4.63;;;8.20;99.90;;;;;;5033148;28;21200;-92
2021/11/16 01:00:01;;;;;;;5.13;4.72;;;8.20;99.90;;;;;;5033907;28;20227;-92
2021/11/16 01:02:28;;;;;;;4.90;4.50;;;8.20;99.90;;;;;;5033548;28;20354;-92
2021/11/16 01:04:55;;;;;;;4.72;4.40;;;8.20;99.90;;;;;;5034440;28;20245;-92
2021/11/16 01:07:23;;;;;;;4.97;4.57;;;8.20;99.90;;;;;;5031379;28;20234;-92
2021/11/16 01:09:51;;;;;;;4.85;4.55;;;8.20;99.90;;;;;;5031080;28;20226;-93
2021/11/16 01:12:19;;;;;;;5.13;4.72;;;8.20;99.90;;;;;;5031435;28;20223;-92
2021/11/16 01:14:47;;;;;;;5.47;5.07;;;8.20;99.90;;;;;;5027895;28;20219;-91
2021/11/16 01:17:14;;;;;;;5.55;5.05;;;8.20;99.90;;;;;;5032459;28;20716;-89
2021/11/16 01:19:42;;;;;;;5.53;5.13;;;8.20;99.90;;;;;;5031648;28;20227;-92
2021/11/16 01:22:10;;;;;;;4.80;4.50;;;8.20;99.90;;;;;;5034144;28;20230;-91
2021/11/16 01:24:38;;;;;;;5.53;5.13;;;8.20;99.90;;;;;;5031925;28;20226;-89
2021/11/16 01:27:10;;;;;;;4.47;4.18;;;8.20;99.90;;;;;;5031732;28;20231;-90
2021/11/16 01:29:38;;;;;;;5.88;5.38;;;8.20;99.90;;;;;;5034104;28;20700;-89
2021/11/16 01:32:15;;;;;;;5.88;5.28;;;8.20;99.90;;;;;;5034822;28;20306;-91
2021/11/16 01:34:46;;;;;;;5.10;4.70;;;8.10;99.90;;;;;;5034220;28;20227;-92
2021/11/16 01:37:14;;;;;;;5.15;4.65;;;8.10;99.90;;;;;;5038695;28;20693;-92
2021/11/16 01:39:41;;;;;;;5.20;4.80;;;8.10;99.90;;;;;;5032947;28;20598;-90
2021/11/16 01:42:10;;;;;;;4.97;4.57;;;8.10;99.90;;;;;;5044856;28;20774;-92
2021/11/16 01:44:38;;;;;;;4.97;4.57;;;8.10;99.90;;;;;;5035018;28;20234;-92
2021/11/16 01:47:05;;;;;;;4.93;4.53;;;8.10;99.90;;;;;;5035203;28;20227;-91
2021/11/16 01:49:33;;;;;;;5.57;5.07;;;8.10;99.90;;;;;;5040666;28;20227;-92
2021/11/16 01:52:00;;;;;;;4.85;4.45;;;8.10;99.90;;;;;;5034742;28;20649;-91
2021/11/16 01:54:27;;;;;;;4.80;4.40;;;8.10;99.90;;;;;;5037062;28;20230;-91
2021/11/16 01:56:55;;;;;;;5.03;4.63;;;8.10;99.90;;;;;;5008738;28;20230;-91
2021/11/16 01:59:24;;;;;;;5.40;4.50;;;8.10;99.90;;;;;;5045590;28;20235;-90
2021/11/16 02:01:54;;;;;;;4.88;4.47;;;8.10;99.90;;;;;;5033992;28;20314;-91
2021/11/16 02:04:22;;;;;;;5.15;4.75;;;8.10;99.90;;;;;;5040935;28;20590;-92
2021/11/16 02:06:50;;;;;;;5.13;4.72;;;8.00;99.90;;;;;;5027378;28;20223;-90
2021/11/16 02:09:18;;;;;;;5.55;5.05;;;8.00;99.90;;;;;;5035072;28;20223;-90
2021/11/16 02:11:46;;;;;;;5.30;4.90;;;8.00;99.90;;;;;;5036928;28;20231;-92
2021/11/16 02:14:18;;;;;;;5.35;4.95;;;8.00;99.90;;;;;;5044951;28;20231;-91
2021/11/16 02:16:48;;;;;;;5.13;4.72;;;8.00;99.90;;;;;;5033037;28;20216;-91
2021/11/16 02:19:19;;;;;;;5.20;4.80;;;7.90;99.90;;;;;;5039650;28;20218;-91
2021/11/16 02:21:49;;;;;;;5.38;4.97;;;7.90;99.90;;;;;;5011397;28;20227;-90
2021/11/16 02:24:16;;;;;;;6.13;5.53;;;7.90;99.90;;;;;;5047243;28;20232;-90
2021/11/16 02:26:44;;;;;;;5.60;5.10;;;7.90;99.90;;;;;;5032502;28;20215;-90
2021/11/16 02:29:11;;;;;;;5.05;4.65;;;7.90;99.90;;;;;;5042636;28;20226;-92
2021/11/16 02:31:39;;;;;;;5.05;4.57;;;7.90;99.90;;;;;;5033350;28;20227;-90
2021/11/16 02:34:08;;;;;;;4.57;4.28;;;7.90;99.90;;;;;;5031327;28;20215;-90
2021/11/16 02:36:38;;;;;;;5.63;5.13;;;7.80;99.90;;;;;;5019819;28;20223;-91
2021/11/16 02:39:09;;;;;;;5.78;5.25;;;7.90;99.90;;;;;;5037009;28;20223;-92
2021/11/16 02:41:37;;;;;;;5.53;5.05;;;7.90;99.90;;;;;;5015186;28;20345;-91
2021/11/16 02:44:07;;;;;;;5.05;4.65;;;7.90;99.90;;;;;;5045432;28;20219;-91
2021/11/16 02:46:34;;;;;;;5.18;4.68;;;7.90;99.90;;;;;;5041308;28;20247;-92
2021/11/16 02:49:02;;;;;;;5.40;5.00;;;7.90;99.90;;;;;;5044296;28;20233;-92
2021/11/16 02:51:34;;;;;;;5.28;4.88;;;7.90;99.90;;;;;;5038391;28;20655;-91
2021/11/16 02:54:02;;;;;;;5.32;4.93;;;7.90;99.90;;;;;;5030353;28;20724;-91
2021/11/16 02:56:32;;;;;;;5.68;5.18;;;7.90;99.90;;;;;;5028937;28;20319;-92
2021/11/16 02:58:59;;;;;;;5.40;4.93;;;7.90;99.90;;;;;;5036036;28;20285;-92
2021/11/16 03:01:26;;;;;;;5.82;5.22;;;7.80;99.90;;;;;;5031253;28;20314;-92
2021/11/16 03:03:54;;;;;;;4.97;4.57;;;7.80;99.90;;;;;;5028067;28;20307;-92
2021/11/16 03:06:22;;;;;;;5.85;5.40;;;7.80;99.90;;;;;;5030876;28;20220;-92
2021/11/16 03:08:50;;;;;;;5.40;4.93;;;7.80;99.90;;;;;;5031059;28;20652;-93
2021/11/16 03:11:19;;;;;;;6.22;5.72;;;7.90;99.90;;;;;;5036490;28;20751;-92
2021/11/16 03:13:48;;;;;;;5.70;5.20;;;7.90;99.90;;;;;;5019254;28;20274;-91
2021/11/16 03:16:17;;;;;;;5.93;5.45;;;7.90;99.90;;;;;;5040510;28;20235;-91
2021/11/16 03:18:46;;;;;;;5.20;4.80;;;7.80;99.90;;;;;;5026989;28;20693;-90
2021/11/16 03:21:16;;;;;;;5.63;5.13;;;7.80;99.90;;;;;;5033750;28;20250;-90
2021/11/16 03:23:45;;;;;;;6.30;5.65;;;7.80;99.90;;;;;;5037481;28;20235;-92
2021/11/16 03:26:13;;;;;;;5.85;5.35;;;7.80;99.90;;;;;;5032582;28;20293;-91
2021/11/16 03:28:47;;;;;;;5.72;5.22;;;7.80;99.90;;;;;;5033792;28;20261;-92
2021/11/16 03:34:01;;;;;;;5.50;5.10;;;7.80;99.90;;;;;;5041461;28;20685;-92
2021/11/16 03:36:29;;;;;;;5.53;5.13;;;7.80;99.90;;;;;;5037187;28;22230;-90
2021/11/16 03:39:00;;;;;;;5.30;4.90;;;7.80;99.90;;;;;;5034100;28;20223;-92
2021/11/16 03:41:27;;;;;;;5.32;4.93;;;7.80;99.90;;;;;;5030526;28;20231;-90
2021/11/16 03:43:55;;;;;;;6.20;5.70;;;7.80;99.90;;;;;;5037404;28;20244;-92
2021/11/16 03:46:25;;;;;;;5.63;5.13;;;7.80;99.90;;;;;;5035201;28;20243;-89
2021/11/16 03:48:52;;;;;;;5.60;5.20;;;7.80;99.90;;;;;;5033727;28;20227;-90
2021/11/16 03:51:19;;;;;;;5.55;5.05;;;7.80;99.90;;;;;;5034672;28;20219;-90
2021/11/16 03:53:47;;;;;;;5.00;4.60;;;7.80;99.90;;;;;;5002089;28;20224;-91
2021/11/16 03:56:15;;;;;;;5.57;5.03;;;7.80;99.90;;;;;;5008319;28;20211;-90
2021/11/16 03:58:45;;;;;;;5.88;5.32;;;7.80;99.90;;;;;;5022172;28;20234;-91
2021/11/16 04:01:13;;;;;;;5.60;5.13;;;7.80;99.90;;;;;;5033641;28;20231;-91
2021/11/16 04:03:42;;;;;;;5.22;4.82;;;7.80;99.90;;;;;;5031203;28;20250;-90
2021/11/16 04:06:11;;;;;;;5.40;5.00;;;7.80;99.90;;;;;;5041022;28;20223;-92
2021/11/16 04:11:21;;;;;;;5.38;4.88;;;7.80;99.90;;;;;;5011283;28;20210;-91
2021/11/16 04:13:49;;;;;;;5.85;5.38;;;7.80;99.90;;;;;;5012482;28;20698;-90
2021/11/16 04:16:18;;;;;;;5.53;5.13;;;7.80;99.90;;;;;;5039235;28;20226;-92
2021/11/16 04:18:46;;;;;;;5.50;5.10;;;7.70;99.90;;;;;;5034254;28;20234;-91
2021/11/16 04:21:14;;;;;;;5.22;4.82;;;7.80;99.90;;;;;;5028376;28;20219;-91
2021/11/16 04:23:44;;;;;;;5.47;5.07;;;7.80;99.90;;;;;;5028601;28;20227;-91
2021/11/16 04:26:11;;;;;;;4.38;4.07;;;7.80;99.90;;;;;;5004976;28;20673;-91
2021/11/16 04:28:39;;;;;;;4.85;4.53;;;7.80;99.90;;;;;;5021847;28;20224;-89
2021/11/16 04:31:08;;;;;;;5.70;5.18;;;7.80;99.90;;;;;;5013335;28;20224;-91
2021/11/16 04:33:38;;;;;;;5.22;4.82;;;7.80;99.90;;;;;;5023674;28;20228;-91
2021/11/16 04:36:07;;;;;;;5.97;5.47;;;7.80;99.90;;;;;;5014249;28;20585;-91
2021/11/16 04:38:34;;;;;;;4.72;4.43;;;7.80;99.90;;;;;;5019099;28;21020;-90
2021/11/16 04:41:03;;;;;;;5.13;4.72;;;7.80;99.90;;;;;;5016637;28;20234;-93
2021/11/16 04:43:32;;;;;;;5.60;5.20;;;7.80;99.90;;;;;;5016577;28;20227;-91
2021/11/16 04:48:53;;;;;;;5.80;5.32;;;7.70;99.90;;;;;;5017974;28;20227;-91
2021/11/16 05:05:20;;;;;;;6.10;5.60;;;7.50;99.90;;;;;;5016100;28;20218;-91
2021/11/16 05:07:56;;;;;;;6.07;5.53;;;7.50;99.90;;;;;;5027745;28;20279;-92
2021/11/16 05:10:24;;;;;;;6.82;6.15;;;7.50;99.90;;;;;;5015812;28;20496;-90
2021/11/16 05:12:54;;;;;;;6.15;5.65;;;7.50;99.90;;;;;;5016524;28;20220;-92
2021/11/16 05:15:22;;;;;;;6.60;6.03;;;7.50;99.90;;;;;;5015705;28;20274;-90
2021/11/16 05:17:50;;;;;;;6.15;5.65;;;7.50;99.90;;;;;;5015942;28;20228;-91
2021/11/16 05:20:20;;;;;;;6.80;6.20;;;7.50;99.90;;;;;;5016806;28;20244;-91
2021/11/16 05:22:51;;;;;;;6.75;6.15;;;7.50;99.90;;;;;;5030689;28;20226;-91
2021/11/16 05:25:19;;;;;;;7.45;6.75;;;7.50;99.90;;;;;;5023204;28;20217;-92
2021/11/16 05:27:47;;;;;;;7.82;7.13;;;7.50;99.90;;;;;;5016356;28;20227;-92
2021/11/16 05:30:16;;;;;;;8.68;7.82;;;7.50;99.90;;;;;;5019076;28;20227;-88
2021/11/16 05:32:46;;;;;;;11.88;9.73;;;7.50;99.90;;;;;;4999504;28;20227;-90
2021/11/16 05:37:57;;;;;;;8.82;7.93;;;7.50;99.90;;;;;;5014535;28;20241;-91
2021/11/16 05:40:25;;;;;;;8.30;7.43;;;7.50;99.90;;;;;;4991599;28;20228;-90
2021/11/16 05:42:53;;;;;;;8.00;7.20;;;7.40;99.90;;;;;;5043156;28;20239;-89
2021/11/16 05:45:20;;;;;;;7.88;7.18;;;7.40;99.90;;;;;;5015443;28;20216;-89
2021/11/16 05:47:48;;;;;;;7.85;7.15;;;7.40;99.90;;;;;;5014393;28;20287;-91
2021/11/16 05:50:17;;;;;;;6.00;5.40;;;7.40;99.90;;;;;;5005952;28;20220;-92
2021/11/16 05:52:44;;;;;;;6.55;6.03;;;7.40;99.90;;;;;;5023174;28;20306;-90
2021/11/16 05:55:16;;;;;;;6.85;6.25;;;7.40;99.90;;;;;;4996315;28;20230;-90
2021/11/16 05:57:49;;;;;;;6.65;6.05;;;7.40;99.90;;;;;;5040454;28;20701;-91
2021/11/16 06:00:17;;;;;;;7.28;6.53;;;7.40;99.90;;;;;;5024800;28;20258;-91
2021/11/16 06:02:46;;;;;;;6.47;5.88;;;7.40;99.90;;;;;;5022896;28;20227;-89
2021/11/16 06:05:15;;;;;;;7.72;6.93;;;7.40;99.90;;;;;;5023257;28;20636;-89
2021/11/16 06:07:42;;;;;;;6.75;6.15;;;7.40;99.90;;;;;;5001752;28;20224;-90
2021/11/16 06:10:10;;;;;;;6.38;5.78;;;7.40;99.90;;;;;;5024366;28;20589;-89
2021/11/16 06:12:39;;;;;;;6.53;5.93;;;7.40;99.90;;;;;;5033165;28;20246;-90
2021/11/16 06:15:17;;;;;;;5.70;5.25;;;7.40;99.90;;;;;;5019491;28;20224;-91
2021/11/16 06:17:47;;;;;;;6.20;5.68;;;7.40;99.90;;;;;;5001195;28;20223;-92
2021/11/16 06:20:19;;;;;;;5.57;5.18;;;7.40;99.90;;;;;;5032718;28;20716;-91
2021/11/16 06:22:47;;;;;;;6.50;6.00;;;7.50;99.90;;;;;;5016468;28;20234;-91
2021/11/16 06:27:57;;;;;;;6.03;5.53;;;7.40;99.90;;;;;;5033907;28;20230;-91
2021/11/16 06:30:25;;;;;;;5.32;4.82;;;7.50;99.90;;;;;;5034082;28;20219;-91
2021/11/16 06:32:52;;;;;;;6.38;5.82;;;7.50;99.90;;;;;;5034282;28;20223;-91
2021/11/16 06:35:25;;;;;;;6.00;5.50;;;7.50;99.90;;;;;;5040335;28;20245;-91
2021/11/16 06:37:53;;;;;;;6.05;5.55;;;7.50;99.90;;;;;;5040213;28;20230;-90
2021/11/16 06:40:21;;;;;;;5.90;5.22;;;7.50;99.90;;;;;;5015964;28;20250;-91
2021/11/16 06:42:49;;;;;;;6.63;6.03;;;7.50;99.90;;;;;;5043817;28;20227;-91
2021/11/16 06:45:18;;;;;;;6.60;6.00;;;7.50;99.90;;;;;;5033543;28;20223;-91
2021/11/16 06:50:27;;;;;;;6.13;5.63;;;7.50;99.90;;;;;;5028420;28;20215;-91
2021/11/16 06:52:56;;;;;;;5.45;5.03;;;7.50;99.90;;;;;;5034229;28;20223;-90
2021/11/16 06:55:26;;;;;;;6.10;5.60;;;7.50;99.90;;;;;;5010596;28;20227;-90
2021/11/16 06:57:53;;;;;;;6.15;5.60;;;7.60;99.90;;;;;;5049317;28;20223;-90
2021/11/16 07:00:25;;;;;;;5.97;5.47;;;7.60;99.90;;;;;;5035121;28;20219;-89
2021/11/16 07:03:08;;;;;;;5.68;5.28;;;7.60;99.90;;;;;;5035030;28;20314;-92
2021/11/16 07:05:36;;;;;;;5.72;5.22;;;7.70;99.90;;;;;;5034163;28;20302;-90
2021/11/16 07:08:06;;;;;;;5.70;5.20;;;7.70;99.90;;;;;;5032018;28;20257;-92
2021/11/16 07:10:33;;;;;;;5.50;5.10;;;7.70;99.90;;;;;;5029185;28;20234;-90
2021/11/16 07:13:06;;;;;;;6.05;5.55;;;7.80;99.90;;;;;;5029203;28;20696;-90
2021/11/16 07:15:35;;;;;;;6.13;5.63;;;7.80;99.90;;;;;;5028782;28;20254;-90
2021/11/16 07:18:04;;;;;;;5.93;5.43;;;7.90;99.90;;;;;;5032549;28;20234;-90
2021/11/16 07:20:31;;;;;;;5.75;5.25;;;7.90;99.90;;;;;;5030526;28;20247;-92
2021/11/16 07:22:59;;;;;;;6.15;5.65;;;8.00;99.90;;;;;;5032962;28;20238;-91
2021/11/16 07:25:31;;;;;;;5.55;5.15;;;8.00;99.90;;;;;;5037567;28;20310;-91
2021/11/16 07:27:59;;;;;;;5.00;4.60;;;8.00;99.90;;;;;;5030528;28;20238;-91
2021/11/16 07:30:32;;;;;;;5.45;4.95;;;8.10;99.90;;;;;;5042737;28;20231;-91
2021/11/16 07:33:09;;;;;;;5.10;4.70;;;8.10;99.90;;;;;;5034985;28;20220;-92
2021/11/16 07:35:38;;;;;;;5.07;4.68;;;8.10;99.90;;;;;;5018773;28;20571;-91
2021/11/16 07:38:07;;;;;;;5.80;5.30;;;8.20;99.90;;;;;;5007367;28;20220;-90
2021/11/16 07:40:41;;;;;;;5.35;4.95;;;8.20;99.90;;;;;;5016040;28;20225;-91
2021/11/16 07:43:10;;;;;;;6.20;5.70;;;8.10;99.90;;;;;;5039011;28;20227;-91
2021/11/16 07:45:40;;;;;;;5.85;5.35;;;8.10;99.90;;;;;;5019163;28;20221;-91
2021/11/16 07:48:11;;;;;;;5.75;5.28;;;8.10;99.90;;;;;;5002844;28;20223;-90
2021/11/16 07:50:45;;;;;;;5.80;5.40;;;8.10;99.90;;;;;;5028043;28;20710;-90
2021/11/16 07:53:24;;;;;;;6.40;5.80;;;8.20;99.90;;;;;;5010223;28;20230;-91
2021/11/16 07:56:06;;;;;;;5.95;5.45;;;8.20;99.90;;;;;;5004221;28;20342;-90
2021/11/16 07:58:36;;;;;;;6.28;5.75;;;8.30;99.90;;;;;;5005260;28;20271;-91
2021/11/16 08:01:10;;;;;;;9.52;5.82;;;8.30;99.90;;;;;;5006991;28;20220;-91
2021/11/16 08:03:46;;;;;;;6.22;5.72;;;8.50;99.90;;;;;;5009794;28;20258;-91
2021/11/16 08:06:18;;;;;;;6.10;5.60;;;8.60;99.90;;;;;;5004892;28;20298;-91
2021/11/16 08:09:03;;;;;;;5.65;5.20;;;8.60;99.90;;;;;;4997669;28;20226;-89
2021/11/16 08:11:33;;;;;;;6.35;5.85;;;8.80;99.90;;;;;;5013542;28;20335;-91
2021/11/16 08:14:05;;;;;;;6.15;5.65;;;9.00;99.90;;;;;;5009374;28;20715;-90
2021/11/16 08:16:34;;;;;;;6.00;5.50;;;9.10;99.90;;;;;;5007510;28;20234;-89
2021/11/16 08:19:10;;;;;;;6.30;5.70;;;9.20;99.90;;;;;;4961011;28;20243;-91
2021/11/16 08:21:43;;;;;;;6.63;6.05;;;9.40;99.90;;;;;;5019617;28;20223;-90
2021/11/16 08:24:12;;;;;;;6.90;6.30;;;9.60;99.90;;;;;;5008147;28;20263;-89
2021/11/16 08:26:43;;;;;;;7.05;6.45;;;9.90;99.90;;;;;;4992980;28;20224;-90
2021/11/16 08:29:12;;;;;;;7.95;7.25;;;10.00;99.90;;;;;;5017385;28;20223;-90
2021/11/16 08:31:48;;;;;;;7.20;6.43;;;10.10;99.90;;;;;;5009846;28;20247;-90
2021/11/16 08:34:19;;;;;;;8.43;7.65;;;10.30;99.90;;;;;;5011882;28;20225;-90
2021/11/16 08:36:49;;;;;;;7.65;6.95;;;10.60;99.90;;;;;;5010501;28;20222;-91
2021/11/16 08:39:30;;;;;;;7.40;6.70;;;11.10;99.90;;;;;;5008175;28;20288;-89
2021/11/16 08:41:58;;;;;;;7.53;6.90;;;11.30;99.90;;;;;;5011924;28;20315;-92
2021/11/16 08:44:31;;;;;;;7.93;7.13;;;11.30;99.90;;;;;;5010636;28;20238;-91
2021/11/16 08:47:10;;;;;;;7.10;6.40;;;11.30;99.90;;;;;;5013933;28;20220;-89
2021/11/16 08:49:44;;;;;;;7.28;6.60;;;11.20;99.90;;;;;;5010369;28;20618;-91
2021/11/16 08:52:16;;;;;;;7.75;6.70;;;11.10;99.90;;;;;;5013810;28;20296;-91
2021/11/16 08:54:54;;;;;;;7.25;6.55;;;11.10;99.90;;;;;;5007254;28;20235;-91
2021/11/16 08:57:24;;;;;;;6.38;5.88;;;11.10;99.90;;;;;;5010981;28;20232;-90
2021/11/16 08:59:53;;;;;;;6.50;5.97;;;11.30;99.90;;;;;;5005271;28;20236;-91
2021/11/16 09:02:32;;;;;;;7.53;6.88;;;11.40;99.90;;;;;;5010856;28;20220;-92
2021/11/16 09:05:13;;;;;;;7.07;6.47;;;11.30;99.90;;;;;;5011456;28;20233;-90
2021/11/16 09:07:50;;;;;;;7.03;6.43;;;11.30;99.90;;;;;;4993086;28;20217;-90
2021/11/16 09:13:04;;;;;;;7.63;6.78;;;11.20;99.90;;;;;;5008258;28;21725;-91
2021/11/16 09:18:22;;;;;;;8.27;6.85;;;11.30;99.90;;;;;;5009085;28;20235;-91
2021/11/16 09:21:05;;;;;;;7.50;6.80;;;11.30;99.90;;;;;;5007146;28;20255;-91
2021/11/16 09:23:36;;;;;;;6.82;6.25;;;11.20;99.90;;;;;;5010886;28;20208;-90
2021/11/16 09:26:12;;;;;;;7.30;6.70;;;10.90;99.90;;;;;;5016209;28;20188;-90
2021/11/16 09:28:46;;;;;;;7.68;6.97;;;10.60;99.90;;;;;;5021513;28;20200;-91
2021/11/16 09:31:23;;;;;;;6.85;6.28;;;10.50;99.90;;;;;;5013670;28;20202;-89
2021/11/16 09:33:54;;;;;;;7.00;6.40;;;10.50;99.90;;;;;;5012429;28;20231;-91
2021/11/16 09:36:26;;;;;;;7.28;6.57;;;10.50;99.90;;;;;;5011633;28;20219;-90
2021/11/16 09:38:57;;;;;;;7.45;6.75;;;10.60;99.90;;;;;;5011262;28;20235;-91
2021/11/16 09:41:41;;;;;;;7.38;6.78;;;10.60;99.90;;;;;;5009666;28;20246;-89
2021/11/16 09:44:17;;;;;;;10.80;8.27;;;10.60;99.90;;;;;;5007008;28;20235;-90
2021/11/16 09:46:48;;;;;;;8.52;7.82;;;10.50;99.90;;;;;;5009111;28;20235;-91
2021/11/16 09:49:20;;;;;;;8.43;7.50;;;10.40;99.90;;;;;;5008041;28;20242;-91
2021/11/16 09:52:06;;;;;;;8.23;7.53;;;10.20;99.90;;;;;;5009338;28;20306;-90
2021/11/16 09:57:35;;;;;;;9.52;8.10;;;10.40;99.90;;;;;;5010053;28;20330;-91
2021/11/16 10:00:10;;;;;;;8.85;8.05;;;10.50;99.90;;;;;;5007787;28;20221;-91
2021/11/16 10:02:39;;;;;;;8.23;7.50;;;10.50;99.90;;;;;;5010679;28;20220;-91
2021/11/16 10:05:18;;;;;;;8.13;7.43;;;10.40;99.90;;;;;;5010017;28;20235;-91
2021/11/16 10:07:47;;;;;;;7.60;7.00;;;10.40;99.90;;;;;;5009383;28;20713;-91
2021/11/16 10:10:16;;;;;;;7.28;6.68;;;10.40;99.90;;;;;;5007776;28;20236;-92
2021/11/16 10:12:47;;;;;;;7.32;6.72;;;10.40;99.90;;;;;;5006706;28;20223;-90
2021/11/16 10:15:17;;;;;;;6.70;6.18;;;10.40;99.90;;;;;;5003648;28;20232;-91
2021/11/16 10:17:46;;;;;;;6.75;6.20;;;10.50;99.90;;;;;;5007288;28;20224;-91
2021/11/16 10:20:16;;;;;;;7.32;6.57;;;10.70;99.90;;;;;;5004701;28;20235;-92
2021/11/16 10:22:51;;;;;;;6.78;6.15;;;10.80;99.90;;;;;;5007335;28;20613;-91
2021/11/16 10:25:21;;;;;;;7.20;6.53;;;10.80;99.90;;;;;;5006878;28;20484;-91
2021/11/16 10:27:50;;;;;;;7.22;6.63;;;10.80;99.90;;;;;;5015838;28;20228;-92
2021/11/16 10:30:21;;;;;;;6.85;6.25;;;10.80;99.90;;;;;;5010772;28;20236;-90
2021/11/16 10:33:07;;;;;;;5.90;5.40;;;10.80;99.90;;;;;;5013794;28;20253;-91
2021/11/16 10:35:36;;;;;;;5.65;5.15;;;10.80;99.90;;;;;;5005974;28;20235;-90
2021/11/16 10:38:20;;;;;;;6.43;5.88;;;10.70;99.90;;;;;;5020761;28;20222;-90
2021/11/16 10:40:47;;;;;;;6.05;5.55;;;10.70;99.90;;;;;;5014598;28;20244;-91
2021/11/16 10:43:16;;;;;;;6.28;5.78;;;10.80;99.90;;;;;;5010341;28;20231;-91
2021/11/16 10:45:47;;;;;;;6.55;6.05;;;10.70;99.90;;;;;;5010280;28;20232;-91
2021/11/16 10:48:18;;;;;;;6.85;6.20;;;10.70;99.90;;;;;;5008039;28;20634;-91
2021/11/16 10:50:48;;;;;;;6.78;6.18;;;10.70;99.90;;;;;;5024404;28;20289;-91
2021/11/16 10:53:20;;;;;;;7.43;6.75;;;10.60;99.90;;;;;;5027497;28;20685;-92
2021/11/16 10:55:51;;;;;;;7.32;6.68;;;10.50;99.90;;;;;;5022471;28;20219;-91
2021/11/16 10:58:19;;;;;;;7.68;7.07;;;10.50;99.90;;;;;;5024243;28;20227;-90
2021/11/16 11:00:52;;;;;;;8.13;7.43;;;10.50;99.90;;;;;;5020410;28;20266;-92
2021/11/16 11:03:31;;;;;;;6.38;5.80;;;10.50;99.90;;;;;;5017028;28;20224;-92
2021/11/16 11:06:02;;;;;;;6.75;6.20;;;10.50;99.90;;;;;;5006055;28;20236;-90
2021/11/16 11:08:41;;;;;;;6.30;5.80;;;10.50;99.90;;;;;;5007135;28;20228;-93
2021/11/16 11:11:27;;;;;;;6.28;5.75;;;10.60;99.90;;;;;;4997188;28;20215;-92
2021/11/16 11:13:59;;;;;;;6.60;6.00;;;10.70;99.90;;;;;;5005375;28;20253;-92
2021/11/16 11:16:27;;;;;;;5.95;5.45;;;10.80;99.90;;;;;;5003614;28;20695;-91
2021/11/16 11:18:55;;;;;;;6.47;5.97;;;10.80;99.90;;;;;;5001170;28;20224;-91
2021/11/16 11:21:44;;;;;;;6.18;5.68;;;10.80;99.90;;;;;;5005944;28;20240;-92
2021/11/16 11:24:27;;;;;;;6.68;6.18;;;10.80;99.90;;;;;;5003931;28;20246;-92
2021/11/16 11:29:41;;;;;;;5.50;5.10;;;10.80;99.90;;;;;;5009978;28;20262;-93
2021/11/16 11:35:04;;;;;;;5.20;4.80;;;10.90;99.90;;;;;;5011585;28;20625;-92
2021/11/16 11:37:37;;;;;;;5.10;4.70;;;11.00;99.90;;;;;;5007550;28;20304;-93
2021/11/16 11:42:53;;;;;;;5.80;5.30;;;11.00;99.90;;;;;;5007657;28;20333;-93
2021/11/16 11:45:26;;;;;;;5.57;5.07;;;11.00;99.90;;;;;;5017897;28;20752;-92
2021/11/16 11:53:36;;;;;;;6.78;6.13;;;10.90;99.90;;;;;;5017167;28;20273;-92
2021/11/16 11:56:08;;;;;;;6.20;5.70;;;10.80;99.90;;;;;;5028099;28;20239;-91
2021/11/16 11:58:39;;;;;;;7.10;6.50;;;10.80;99.90;;;;;;5019536;28;20231;-91
2021/11/16 12:01:28;;;;;;;6.10;5.60;;;10.70;99.90;;;;;;5013444;28;20215;-92
2021/11/16 12:06:42;;;;;;;5.93;5.43;;;10.60;99.90;;;;;;5036881;28;20276;-92
2021/11/16 12:09:11;;;;;;;7.60;6.90;;;10.60;99.90;;;;;;5024461;28;20242;-93
2021/11/16 12:11:40;;;;;;;6.78;6.07;;;10.60;99.90;;;;;;5019614;28;20227;-92
2021/11/16 12:19:53;;;;;;;7.55;6.85;;;10.50;99.90;;;;;;5024540;28;20227;-93
2021/11/16 12:22:25;;;;;;;8.55;7.75;;;10.50;99.90;;;;;;5014555;28;20235;-92
2021/11/16 12:25:07;;;;;;;9.00;8.02;;;10.40;99.90;;;;;;5006218;28;20285;-92
2021/11/16 12:27:42;;;;;;;7.40;6.72;;;10.40;99.90;;;;;;5004492;28;20231;-92
2021/11/16 12:30:11;;;;;;;7.53;6.82;;;10.40;99.90;;;;;;5001811;28;20231;-92
2021/11/16 12:32:50;;;;;;;8.02;7.32;;;10.30;99.90;;;;;;5003938;28;20251;-91
2021/11/16 12:35:20;;;;;;;8.05;7.35;;;10.40;99.90;;;;;;5017228;28;20702;-92
2021/11/16 12:37:49;;;;;;;9.30;7.72;;;10.40;99.90;;;;;;5005887;28;20286;-92
2021/11/16 12:40:23;;;;;;;7.55;6.85;;;10.40;99.90;;;;;;5025323;28;20216;-93
2021/11/16 12:43:17;;;;;;;8.32;7.57;;;10.50;99.90;;;;;;5008617;28;20256;-90
2021/11/16 12:45:49;;;;;;;7.88;7.18;;;10.50;99.90;;;;;;5007579;28;20311;-92
2021/11/16 12:48:18;;;;;;;8.45;7.65;;;10.50;99.90;;;;;;5017481;28;20251;-92
2021/11/16 12:51:08;;;;;;;7.82;7.13;;;10.40;99.90;;;;;;5013485;28;20223;-90
2021/11/16 12:53:56;;;;;;;7.88;7.18;;;10.40;99.90;;;;;;5002418;28;20402;-92
2021/11/16 12:56:25;;;;;;;9.15;8.25;;;10.30;99.90;;;;;;5007855;28;20227;-91
2021/11/16 12:58:56;;;;;;;8.63;7.72;;;10.20;99.90;;;;;;5014802;28;20235;-91
2021/11/16 13:01:38;;;;;;;8.77;7.28;;;10.20;99.90;;;;;;5016547;28;20245;-92
2021/11/16 13:04:08;;;;;;;7.60;7.00;;;10.30;99.90;;;;;;5022117;28;20226;-91
2021/11/16 13:06:36;;;;;;;7.75;7.05;;;10.20;99.90;;;;;;5016117;28;20223;-92
2021/11/16 13:09:05;;;;;;;8.23;7.45;;;10.30;99.90;;;;;;5011914;28;20224;-92
2021/11/16 13:11:43;;;;;;;7.82;7.13;;;10.40;99.90;;;;;;5027424;28;20219;-91
2021/11/16 13:14:33;;;;;;;7.07;6.47;;;10.40;99.90;;;;;;5014231;28;20223;-90
2021/11/16 13:17:01;;;;;;;7.78;7.13;;;10.50;99.90;;;;;;5005429;28;20440;-91
2021/11/16 13:19:29;;;;;;;8.30;7.32;;;10.40;99.90;;;;;;5010691;28;20263;-91
2021/11/16 13:21:57;;;;;;;8.00;7.30;;;10.40;99.90;;;;;;5009561;28;20231;-92
2021/11/16 13:24:39;;;;;;;8.30;7.60;;;10.40;99.90;;;;;;5005379;28;20221;-91
2021/11/16 13:27:06;;;;;;;7.60;7.00;;;10.40;99.90;;;;;;5007133;28;20270;-91
2021/11/16 13:29:37;;;;;;;10.00;8.52;;;10.40;99.90;;;;;;5010490;28;20231;-91
2021/11/16 13:32:15;;;;;;;8.18;7.35;;;10.40;99.90;;;;;;5018232;28;20232;-91
2021/11/16 13:34:45;;;;;;;7.47;6.78;;;10.40;99.90;;;;;;5012591;28;20713;-91
2021/11/16 13:37:21;;;;;;;7.65;7.05;;;10.40;99.90;;;;;;5008930;28;20223;-92
2021/11/16 13:39:49;;;;;;;8.30;7.50;;;10.40;99.90;;;;;;5009166;28;20224;-91
2021/11/16 13:42:23;;;;;;;9.05;8.15;;;10.30;99.90;;;;;;5007809;28;20231;-92
2021/11/16 13:44:55;;;;;;;7.97;7.28;;;10.30;99.90;;;;;;5004942;28;20228;-92
2021/11/16 13:47:26;;;;;;;7.80;7.10;;;10.30;99.90;;;;;;5010438;28;20220;-91
2021/11/16 13:50:00;;;;;;;8.23;7.43;;;10.30;99.90;;;;;;5004960;28;20230;-91
2021/11/16 13:52:33;;;;;;;8.15;7.45;;;10.30;99.90;;;;;;5007539;28;20227;-92
2021/11/16 13:55:06;;;;;;;9.73;8.13;;;10.30;99.90;;;;;;5004282;28;20234;-91
2021/11/16 13:57:36;;;;;;;8.18;7.38;;;10.30;99.90;;;;;;5012045;28;20234;-91
2021/11/16 14:00:15;;;;;;;7.65;7.05;;;10.30;99.90;;;;;;5006101;28;20710;-90
2021/11/16 14:02:49;;;;;;;7.90;7.13;;;10.30;99.90;;;;;;5007551;28;20326;-93
2021/11/16 14:05:17;;;;;;;7.50;6.85;;;10.40;99.90;;;;;;5006362;28;20259;-92
2021/11/16 14:07:53;;;;;;;7.38;6.68;;;10.40;99.90;;;;;;5006095;28;20298;-91
2021/11/16 14:10:22;;;;;;;6.50;5.90;;;10.50;99.90;;;;;;5009684;28;20231;-90
2021/11/16 14:12:52;;;;;;;6.82;6.22;;;10.50;99.90;;;;;;5007545;28;20228;-90